Terminal Aerodrome Forecast
Issued by NWS Jackson, MS

Home | Current Version | Previous Version | Text Only | Print | Product List | Glossary On
Versions: 1 2 3 4 5 6 7 8 9 10 11 12 13 14 15
000
FTUS44 KJAN 032332
TAFGLH
TAF
KGLH 032332Z 0400/0424 28005KT P6SM -RA FEW040 BKN110
     FM040300 21008KT 5SM -SHRA VCTS BKN040CB
     FM041200 24008KT P6SM BKN060
     FM041800 24007KT 6SM -SHRA VCTS OVC050CB=

USA.gov is the U.S. government's official web portal to all federal, state and local government web resources and services.